Time;durP1;ratioP1;P1;durP2;ratioP2;P2;SDS_P1;SDS_P2;PMS_P1;PMS_P2;Temp;Humidity;BMP_temperature;BMP_pressure;BME280_temperature;BME280_humidity;BME280_pressure;Samples;Min_cycle;Max_cycle;Signal;HPM_P1;HPM_P2
2022/04/19 00:01:18;;;;;;;;;20.25;18.75;;;;;12.69;68.16;-18831.50;5028712;28;10384;-70
2022/04/19 00:03:44;;;;;;;;;23.75;19.50;;;;;12.62;68.79;-18829.53;5032514;28;11019;-68
2022/04/19 00:06:11;;;;;;;;;23.50;22.00;;;;;12.62;69.17;-18829.53;5046265;28;11047;-71
2022/04/19 00:08:37;;;;;;;;;23.00;18.25;;;;;12.60;69.12;-18829.09;5029874;28;10732;-71
2022/04/19 00:11:04;;;;;;;;;22.75;18.50;;;;;12.62;69.07;-18829.69;5033134;28;10358;-70
2022/04/19 00:13:31;;;;;;;;;23.00;21.50;;;;;12.58;68.87;-18828.31;5029857;28;11025;-71
2022/04/19 00:15:58;;;;;;;;;20.75;19.75;;;;;12.51;69.38;-18826.38;5033261;28;10658;-70
2022/04/19 00:18:28;;;;;;;;;24.00;21.75;;;;;12.46;69.32;-18824.88;5027458;28;10585;-71
2022/04/19 00:20:54;;;;;;;;;18.75;18.25;;;;;12.42;69.67;-18823.50;5029593;28;10734;-72
2022/04/19 00:23:21;;;;;;;;;23.25;18.75;;;;;12.33;70.24;-18821.09;5017545;28;10993;-72
2022/04/19 00:25:50;;;;;;;;;24.75;21.75;;;;;12.34;69.97;-18821.25;5012507;28;10428;-72
2022/04/19 00:28:16;;;;;;;;;26.25;23.50;;;;;12.31;70.37;-18820.50;5027880;28;10713;-73
2022/04/19 00:30:43;;;;;;;;;22.25;18.00;;;;;12.35;69.98;-18821.53;5029779;28;10830;-69
2022/04/19 00:33:10;;;;;;;;;22.25;21.25;;;;;12.35;70.20;-18821.41;5026819;28;10405;-70
2022/04/19 00:35:37;;;;;;;;;21.25;19.25;;;;;12.32;70.23;-18820.78;5045164;28;10648;-72
2022/04/19 00:38:04;;;;;;;;;19.00;18.50;;;;;12.23;70.55;-18818.09;5014116;28;10555;-67
2022/04/19 00:40:31;;;;;;;;;22.25;19.25;;;;;12.17;70.69;-18816.13;5016699;28;10679;-72
2022/04/19 00:42:58;;;;;;;;;25.50;25.50;;;;;12.27;71.64;-18819.13;5029908;28;10486;-70
2022/04/19 00:45:25;;;;;;;;;17.25;16.75;;;;;12.30;71.88;-18820.03;5029092;28;10666;-71
2022/04/19 00:47:53;;;;;;;;;23.00;22.75;;;;;12.28;72.00;-18819.44;5026906;28;10477;-71
2022/04/19 00:50:24;;;;;;;;;24.50;23.75;;;;;12.35;72.84;-18821.41;5010050;28;10504;-71
2022/04/19 00:52:52;;;;;;;;;22.50;20.75;;;;;12.36;72.74;-18821.84;5014551;28;10556;-69
2022/04/19 00:55:22;;;;;;;;;18.25;17.00;;;;;12.33;72.71;-18820.94;5029138;28;10625;-70
2022/04/19 00:57:49;;;;;;;;;22.00;20.00;;;;;12.29;72.65;-18819.88;5027090;28;10864;-71
2022/04/19 01:00:16;;;;;;;;;21.50;20.75;;;;;12.29;72.92;-18819.75;5018239;28;10716;-71
2022/04/19 01:02:55;;;;;;;;;29.00;24.50;;;;;12.19;73.50;-18816.72;5028882;28;10671;-69
2022/04/19 01:05:25;;;;;;;;;22.50;21.50;;;;;12.15;73.58;-18815.66;5013977;28;10746;-71
2022/04/19 01:07:52;;;;;;;;;28.75;25.25;;;;;12.12;74.42;-18814.75;5029160;28;10661;-71
2022/04/19 01:10:23;;;;;;;;;22.50;22.50;;;;;12.07;74.56;-18813.09;5016065;28;11463;-71
2022/04/19 01:15:41;;;;;;;;;15.00;14.25;;;;;12.08;74.45;-18813.56;5047427;28;10810;-69
2022/04/19 01:18:11;;;;;;;;;18.25;18.25;;;;;12.06;74.19;-18812.81;5026032;28;10635;-70
2022/04/19 01:20:41;;;;;;;;;25.25;22.25;;;;;11.96;74.62;-18810.09;5044018;28;10488;-72
2022/04/19 01:23:19;;;;;;;;;23.75;21.50;;;;;11.92;74.58;-18808.88;5029757;28;11405;-71
2022/04/19 01:25:46;;;;;;;;;28.75;25.00;;;;;11.97;74.82;-18810.25;5025496;28;10690;-71
2022/04/19 01:28:13;;;;;;;;;22.75;22.50;;;;;11.90;74.88;-18808.28;5026347;28;11421;-70
2022/04/19 01:30:43;;;;;;;;;26.00;20.75;;;;;11.93;74.70;-18809.19;5011750;28;10751;-68
2022/04/19 01:33:14;;;;;;;;;31.00;25.00;;;;;11.90;74.47;-18808.28;5013409;28;10820;-68
2022/04/19 01:35:43;;;;;;;;;23.50;20.50;;;;;11.82;75.34;-18805.88;5044667;28;10827;-71
2022/04/19 01:38:13;;;;;;;;;29.00;25.75;;;;;11.83;75.03;-18806.16;5026462;28;10698;-71
2022/04/19 01:40:40;;;;;;;;;25.00;17.00;;;;;11.73;75.36;-18803.00;5005621;28;10912;-70
2022/04/19 01:43:10;;;;;;;;;22.50;21.00;;;;;11.71;75.77;-18802.56;5027571;28;10644;-72
2022/04/19 01:45:45;;;;;;;;;28.50;26.25;;;;;11.70;75.72;-18802.25;5027511;28;10593;-71
2022/04/19 01:48:18;;;;;;;;;26.50;23.25;;;;;11.67;75.65;-18801.34;5030063;28;10821;-71
2022/04/19 01:50:45;;;;;;;;;26.00;23.00;;;;;11.65;76.05;-18800.75;5025160;28;11277;-71
2022/04/19 01:53:14;;;;;;;;;25.50;23.25;;;;;11.54;75.94;-18797.56;5041055;28;11503;-71
2022/04/19 01:55:44;;;;;;;;;28.25;26.75;;;;;11.52;76.40;-18796.81;5029842;28;11791;-71
2022/04/19 01:58:28;;;;;;;;;31.75;27.00;;;;;11.50;76.55;-18796.22;5029058;28;10976;-72
2022/04/19 02:00:56;;;;;;;;;23.25;20.50;;;;;11.45;76.93;-18794.84;5030450;28;10937;-71
2022/04/19 02:03:23;;;;;;;;;29.25;28.25;;;;;11.44;76.86;-18794.56;5029972;28;10866;-71
2022/04/19 02:05:50;;;;;;;;;22.25;20.50;;;;;11.40;76.92;-18793.34;5025993;28;11054;-71
2022/04/19 02:08:17;;;;;;;;;23.75;21.00;;;;;11.39;76.85;-18793.03;5028536;28;10987;-67
2022/04/19 02:10:44;;;;;;;;;26.50;25.00;;;;;11.42;76.58;-18793.81;5027855;28;10760;-71
2022/04/19 02:13:13;;;;;;;;;30.50;26.50;;;;;11.39;76.30;-18793.03;5016405;28;11834;-71
2022/04/19 02:16:15;;;;;;;;;28.00;26.75;;;;;11.34;76.25;-18791.53;5021238;28;10836;-71
2022/04/19 02:18:41;;;;;;;;;24.75;21.75;;;;;11.31;76.96;-18790.78;5030301;28;10925;-71
2022/04/19 02:21:08;;;;;;;;;24.75;24.50;;;;;11.32;76.68;-18791.09;5029117;28;10736;-68
2022/04/19 02:23:35;;;;;;;;;28.50;23.50;;;;;11.28;76.79;-18789.88;5013863;28;11001;-71
2022/04/19 02:26:02;;;;;;;;;25.00;23.00;;;;;11.24;76.75;-18788.69;5026017;28;10992;-71
2022/04/19 02:28:29;;;;;;;;;27.25;23.00;;;;;11.24;77.01;-18788.69;5028283;28;10854;-69
2022/04/19 02:31:10;;;;;;;;;21.50;20.25;;;;;11.26;76.75;-18789.13;5026331;28;10964;-72
2022/04/19 02:33:40;;;;;;;;;32.75;27.00;;;;;11.27;76.55;-18789.56;5012969;28;11571;-70
2022/04/19 02:36:08;;;;;;;;;26.25;23.25;;;;;11.20;76.49;-18787.31;5024537;28;11046;-72
2022/04/19 02:38:35;;;;;;;;;25.75;24.75;;;;;11.11;77.28;-18784.75;5044476;28;10866;-71
2022/04/19 02:41:04;;;;;;;;;26.00;23.50;;;;;11.07;77.57;-18783.53;5024249;28;10980;-71
2022/04/19 02:43:32;;;;;;;;;24.25;23.00;;;;;11.07;77.66;-18783.69;5025161;28;10830;-72
2022/04/19 02:45:58;;;;;;;;;28.50;21.75;;;;;11.05;77.39;-18782.94;5016229;28;10870;-72
2022/04/19 02:48:31;;;;;;;;;32.25;29.75;;;;;11.00;77.77;-18781.59;5042847;28;11017;-72
2022/04/19 02:51:00;;;;;;;;;24.50;23.50;;;;;11.02;77.43;-18782.19;5024744;28;11101;-72
2022/04/19 02:53:27;;;;;;;;;28.00;24.75;;;;;11.00;77.45;-18781.59;5011673;28;11008;-72
2022/04/19 02:55:54;;;;;;;;;24.50;21.00;;;;;11.00;77.56;-18781.44;5026141;28;11084;-72
2022/04/19 02:58:25;;;;;;;;;34.00;30.25;;;;;10.98;77.71;-18780.84;5027494;28;10720;-70
2022/04/19 03:00:53;;;;;;;;;29.75;24.25;;;;;10.94;77.41;-18779.63;5011922;28;11138;-70
2022/04/19 03:03:20;;;;;;;;;29.75;25.75;;;;;10.88;77.09;-18777.97;5027216;28;10739;-71
2022/04/19 03:05:49;;;;;;;;;27.00;20.25;;;;;10.91;77.52;-18778.88;5026976;28;11207;-72
2022/04/19 03:08:15;;;;;;;;;29.00;25.50;;;;;10.89;77.13;-18778.25;5028212;28;10926;-71
2022/04/19 03:10:42;;;;;;;;;24.75;22.50;;;;;10.87;76.98;-18777.66;5028213;28;11140;-71
2022/04/19 03:13:10;;;;;;;;;30.75;24.75;;;;;10.87;76.79;-18777.66;5029938;28;11063;-72
2022/04/19 03:15:39;;;;;;;;;26.00;22.25;;;;;10.86;76.83;-18777.22;5011329;28;10942;-72
2022/04/19 03:18:05;;;;;;;;;20.00;19.00;;;;;10.88;76.47;-18777.81;5030210;28;10904;-70
2022/04/19 03:20:35;;;;;;;;;24.75;22.50;;;;;10.85;75.96;-18776.91;5005176;28;10893;-71
2022/04/19 03:29:07;;;;;;;;;25.50;23.00;;;;;10.85;74.50;-18777.06;5023541;28;10893;-71
2022/04/19 03:31:34;;;;;;;;;23.25;20.50;;;;;10.79;73.77;-18775.25;5020355;28;11251;-69
2022/04/19 03:34:03;;;;;;;;;21.00;20.25;;;;;10.74;73.98;-18773.75;5028710;28;10988;-71
2022/04/19 03:36:30;;;;;;;;;22.50;20.25;;;;;10.75;73.79;-18774.19;5031047;28;10863;-68
2022/04/19 03:38:58;;;;;;;;;17.25;16.00;;;;;10.74;72.93;-18773.75;5013392;28;10795;-71
2022/04/19 03:41:25;;;;;;;;;22.00;18.50;;;;;10.73;72.88;-18773.44;5029676;28;10644;-72
2022/04/19 03:43:52;;;;;;;;;24.00;19.75;;;;;10.71;72.68;-18772.84;5032736;28;10806;-71
2022/04/19 03:46:19;;;;;;;;;25.00;23.00;;;;;10.67;72.75;-18771.63;5029467;28;10877;-72
2022/04/19 03:48:46;;;;;;;;;22.25;18.00;;;;;10.60;72.72;-18769.50;5030542;28;11018;-74
2022/04/19 03:51:13;;;;;;;;;14.50;14.50;;;;;10.57;73.08;-18768.75;5029508;28;10727;-69
2022/04/19 03:53:40;;;;;;;;;18.50;18.00;;;;;10.57;72.36;-18768.63;5035040;28;10671;-71
2022/04/19 03:56:12;;;;;;;;;22.00;21.75;;;;;10.51;72.03;-18766.81;5033119;28;10981;-73
2022/04/19 03:58:38;;;;;;;;;21.00;18.25;;;;;10.45;72.51;-18765.28;5015197;28;10946;-74
2022/04/19 04:01:06;;;;;;;;;23.00;21.00;;;;;10.41;72.18;-18763.94;5017146;28;10901;-72
2022/04/19 04:03:32;;;;;;;;;18.50;16.00;;;;;10.39;72.16;-18763.34;5010127;28;11897;-74
2022/04/19 04:05:59;;;;;;;;;21.25;15.75;;;;;10.39;71.60;-18763.47;5029278;28;10945;-72
2022/04/19 04:08:25;;;;;;;;;14.75;14.00;;;;;10.33;71.69;-18761.66;5027810;28;10816;-69
2022/04/19 04:10:53;;;;;;;;;21.25;19.25;;;;;10.34;71.71;-18761.81;5028086;28;10869;-68
2022/04/19 04:13:24;;;;;;;;;18.00;17.50;;;;;10.32;71.32;-18761.22;5032605;28;11125;-73
2022/04/19 04:15:51;;;;;;;;;21.00;17.75;;;;;10.25;71.16;-18759.09;5031538;28;10874;-68
2022/04/19 04:18:17;;;;;;;;;19.00;14.00;;;;;10.18;70.99;-18757.28;5031163;28;10870;-70
2022/04/19 04:20:44;;;;;;;;;16.50;15.50;;;;;10.15;71.43;-18756.38;5025261;28;10891;-73
2022/04/19 04:23:12;;;;;;;;;22.00;19.25;;;;;10.13;71.51;-18755.78;5027211;28;10753;-72
2022/04/19 04:25:38;;;;;;;;;23.25;19.50;;;;;10.09;71.27;-18754.44;5029735;28;11061;-72
2022/04/19 04:28:05;;;;;;;;;17.75;17.50;;;;;10.08;70.89;-18754.13;5030505;28;11062;-72
2022/04/19 04:30:41;;;;;;;;;16.50;14.75;;;;;10.10;70.21;-18754.88;5028686;28;10891;-70
2022/04/19 04:33:07;;;;;;;;;22.25;19.00;;;;;10.10;69.55;-18754.72;5016276;28;10969;-73
2022/04/19 04:35:34;;;;;;;;;19.50;16.50;;;;;10.09;69.54;-18754.56;5030350;28;11024;-70
2022/04/19 04:38:01;;;;;;;;;17.75;15.50;;;;;10.05;68.70;-18753.38;5013467;28;10801;-71
2022/04/19 04:40:29;;;;;;;;;19.75;19.00;;;;;10.09;68.65;-18754.56;5014365;28;10703;-73
2022/04/19 04:42:58;;;;;;;;;12.25;11.00;;;;;10.08;68.50;-18754.13;5030627;28;10971;-73
2022/04/19 04:45:26;;;;;;;;;16.75;13.00;;;;;10.05;69.45;-18753.38;5029668;28;10671;-73
2022/04/19 04:50:38;;;;;;;;;18.00;18.00;;;;;10.09;69.40;-18754.44;5032325;28;10904;-72
2022/04/19 04:53:06;;;;;;;;;17.75;17.00;;;;;10.05;68.96;-18753.38;5031137;28;10806;-73
2022/04/19 04:55:37;;;;;;;;;22.00;19.25;;;;;10.05;68.55;-18753.38;5030227;28;11016;-72
2022/04/19 04:58:09;;;;;;;;;14.75;13.75;;;;;10.09;68.40;-18754.56;5030596;28;10924;-73
2022/04/19 05:00:36;;;;;;;;;23.00;16.75;;;;;10.10;67.98;-18754.88;5030893;28;10860;-73
2022/04/19 05:03:03;;;;;;;;;17.50;15.75;;;;;10.23;67.54;-18758.66;5014269;28;10600;-73
2022/04/19 05:05:30;;;;;;;;;20.00;14.50;;;;;10.36;67.09;-18762.56;5027761;28;10746;-71
2022/04/19 05:08:02;;;;;;;;;11.25;11.25;;;;;10.36;66.27;-18762.44;5032935;28;10727;-72
2022/04/19 05:10:29;;;;;;;;;12.25;12.25;;;;;10.45;65.27;-18765.28;5028372;28;10730;-73
2022/04/19 05:12:58;;;;;;;;;15.00;14.25;;;;;10.94;64.11;-18779.78;5023986;28;10684;-73
2022/04/19 05:15:26;;;;;;;;;13.50;12.00;;;;;10.96;63.36;-18780.22;5028753;28;10779;-72
2022/04/19 05:17:53;;;;;;;;;10.50;10.50;;;;;11.03;62.77;-18782.50;5029230;28;10550;-71
2022/04/19 05:20:19;;;;;;;;;11.00;10.75;;;;;11.17;61.56;-18786.41;5041400;28;10702;-70
2022/04/19 05:22:46;;;;;;;;;12.25;11.25;;;;;11.05;61.85;-18783.09;5018006;28;11455;-71
2022/04/19 05:25:14;;;;;;;;;13.75;12.25;;;;;11.08;62.25;-18784.00;5012412;28;10635;-71
2022/04/19 05:27:41;;;;;;;;;16.25;15.25;;;;;11.01;62.80;-18781.75;5028295;28;10525;-71
2022/04/19 05:30:09;;;;;;;;;13.75;13.00;;;;;10.97;63.36;-18780.53;5030167;28;10851;-71
2022/04/19 05:32:35;;;;;;;;;12.75;11.00;;;;;10.99;63.16;-18781.28;5029044;28;10807;-71
2022/04/19 05:35:07;;;;;;;;;16.25;14.50;;;;;10.97;63.38;-18780.53;5027788;28;10695;-71
2022/04/19 05:37:37;;;;;;;;;10.50;10.50;;;;;11.02;62.79;-18782.19;5029325;28;10776;-75
2022/04/19 05:40:04;;;;;;;;;13.00;13.00;;;;;11.04;62.60;-18782.78;5028442;28;10736;-71
2022/04/19 05:42:32;;;;;;;;;12.00;12.00;;;;;11.15;61.43;-18785.81;5028320;28;10519;-70
2022/04/19 05:44:59;;;;;;;;;8.75;8.75;;;;;11.19;61.33;-18787.03;5031309;28;10733;-71
2022/04/19 05:47:26;;;;;;;;;10.75;9.75;;;;;11.28;61.33;-18789.88;5023332;28;10599;-71
2022/04/19 05:49:52;;;;;;;;;13.50;12.50;;;;;11.26;61.28;-18789.28;5025195;28;10581;-71
2022/04/19 05:52:20;;;;;;;;;11.00;10.25;;;;;11.31;61.64;-18790.78;5015061;28;11439;-71
2022/04/19 05:54:46;;;;;;;;;12.25;12.00;;;;;11.41;60.49;-18793.66;5024595;28;10480;-71
2022/04/19 05:57:14;;;;;;;;;13.25;10.00;;;;;11.58;59.17;-18798.63;5028388;28;10619;-70
2022/04/19 05:59:41;;;;;;;;;11.00;11.00;;;;;11.73;58.45;-18803.16;5028768;28;10475;-71
2022/04/19 06:04:57;;;;;;;;;9.75;9.00;;;;;12.36;54.51;-18821.84;5033302;28;11355;-71
2022/04/19 06:07:27;;;;;;;;;13.25;12.25;;;;;12.54;53.49;-18827.28;5013051;28;10399;-70
2022/04/19 06:09:56;;;;;;;;;17.25;16.75;;;;;12.64;52.35;-18830.13;5028353;28;10668;-71
2022/04/19 06:12:23;;;;;;;;;13.75;13.75;;;;;12.82;51.79;-18835.41;5027515;28;10573;-71
2022/04/19 06:14:52;;;;;;;;;11.50;11.50;;;;;13.11;50.76;-18844.00;5023119;28;10336;-70
2022/04/19 06:17:22;;;;;;;;;16.25;14.50;;;;;13.52;50.76;-18856.34;5026366;28;10398;-71
2022/04/19 06:19:50;;;;;;;;;16.00;12.50;;;;;13.74;50.47;-18862.84;5024581;28;10276;-71
2022/04/19 06:22:16;;;;;;;;;10.00;10.00;;;;;13.94;49.63;-18868.72;5021267;28;10324;-70
2022/04/19 06:24:57;;;;;;;;;12.00;12.00;;;;;14.09;49.25;-18873.22;5024761;28;10273;-70
2022/04/19 06:27:24;;;;;;;;;14.75;12.00;;;;;14.02;48.72;-18871.13;5024912;28;10373;-70
2022/04/19 06:29:52;;;;;;;;;14.00;14.00;;;;;14.02;48.94;-18870.97;5036840;28;10106;-70
2022/04/19 06:32:19;;;;;;;;;14.00;14.00;;;;;14.25;48.16;-18877.75;5021161;28;10072;-71
2022/04/19 06:34:50;;;;;;;;;13.00;13.00;;;;;14.04;46.85;-18871.56;5020100;28;10229;-70
2022/04/19 06:37:22;;;;;;;;;19.50;19.50;;;;;14.15;46.31;-18874.88;5012374;28;10088;-70
2022/04/19 06:40:00;;;;;;;;;17.25;14.50;;;;;13.74;45.87;-18862.84;5028597;28;10137;-70
2022/04/19 06:42:29;;;;;;;;;15.50;15.00;;;;;13.85;45.42;-18866.00;5028384;28;10011;-70
2022/04/19 06:45:21;;;;;;;;;18.00;15.00;;;;;13.94;45.23;-18868.72;5028712;28;10417;-71
2022/04/19 06:47:58;;;;;;;;;12.75;11.75;;;;;14.07;45.44;-18872.47;5028019;28;10762;-70
2022/04/19 06:50:27;;;;;;;;;28.25;14.25;;;;;13.88;44.46;-18866.75;5028446;28;10113;-70
2022/04/19 06:52:59;;;;;;;;;14.50;13.25;;;;;13.82;45.12;-18865.25;5025151;28;10367;-69
2022/04/19 06:55:53;;;;;;;;;19.00;16.00;;;;;13.81;45.61;-18864.78;5010992;28;10000;-68
2022/04/19 06:58:20;;;;;;;;;14.00;12.00;;;;;13.89;44.87;-18867.06;5029678;28;10155;-69
2022/04/19 07:00:47;;;;;;;;;17.00;17.00;;;;;13.84;44.94;-18865.69;5026559;28;10177;-69
2022/04/19 07:03:15;;;;;;;;;12.75;12.00;;;;;14.05;45.03;-18871.88;5008845;28;10275;-69
2022/04/19 07:05:53;;;;;;;;;18.00;16.25;;;;;14.09;44.27;-18873.22;5012300;28;10288;-69
2022/04/19 07:08:20;;;;;;;;;16.75;15.00;;;;;14.14;44.17;-18874.72;5048133;28;10239;-69
2022/04/19 07:10:47;;;;;;;;;11.50;11.50;;;;;14.41;44.21;-18882.56;5048425;28;10222;-69
2022/04/19 07:13:34;;;;;;;;;15.00;11.25;;;;;14.58;44.23;-18887.53;5032085;28;10040;-69
2022/04/19 07:16:02;;;;;;;;;16.25;11.75;;;;;14.68;44.30;-18890.69;5031557;28;9961;-69
2022/04/19 07:18:29;;;;;;;;;12.25;9.00;;;;;14.89;44.17;-18896.72;5020761;28;10226;-69
2022/04/19 07:26:38;;;;;;;;;19.25;15.00;;;;;14.92;44.21;-18897.63;5028868;28;9847;-69
2022/04/19 07:29:15;;;;;;;;;10.75;9.00;;;;;15.02;43.57;-18900.63;5012510;28;9861;-69
2022/04/19 07:31:44;;;;;;;;;14.00;11.25;;;;;14.86;43.32;-18895.81;5005011;28;10657;-69
2022/04/19 07:34:26;;;;;;;;;14.00;12.25;;;;;15.08;43.38;-18902.56;5032350;28;9998;-68
2022/04/19 07:36:56;;;;;;;;;15.25;11.50;;;;;15.09;43.78;-18902.88;5027659;28;9863;-69
2022/04/19 07:39:22;;;;;;;;;17.00;12.00;;;;;15.09;43.02;-18902.88;5027096;28;9909;-69
2022/04/19 07:41:50;;;;;;;;;16.00;15.00;;;;;14.92;43.80;-18897.75;5028606;28;9870;-69
2022/04/19 07:44:17;;;;;;;;;12.75;11.25;;;;;15.07;43.75;-18902.13;4995855;28;10200;-69
2022/04/19 07:46:44;;;;;;;;;17.00;14.00;;;;;15.06;43.67;-18901.97;5012003;28;9924;-69
2022/04/19 07:49:11;;;;;;;;;14.50;10.25;;;;;15.29;44.20;-18908.75;5012139;28;10004;-69
2022/04/19 07:51:39;;;;;;;;;11.50;11.00;;;;;15.37;43.20;-18911.00;5025837;28;9873;-69
2022/04/19 07:54:06;;;;;;;;;15.50;15.25;;;;;15.12;43.63;-18903.47;5023729;28;9929;-69
2022/04/19 07:56:33;;;;;;;;;13.00;10.75;;;;;15.25;43.48;-18907.41;5028212;28;10182;-69
2022/04/19 07:58:59;;;;;;;;;16.75;15.75;;;;;15.17;43.22;-18905.13;5012001;28;9926;-69
2022/04/19 08:01:31;;;;;;;;;18.00;15.25;;;;;15.50;43.14;-18914.91;5035871;28;10060;-69
2022/04/19 08:03:58;;;;;;;;;15.25;13.25;;;;;15.27;42.83;-18908.16;5032779;28;10011;-70
2022/04/19 08:06:24;;;;;;;;;21.50;17.75;;;;;15.33;42.98;-18909.81;5034630;28;9740;-70
2022/04/19 08:08:51;;;;;;;;;17.50;13.25;;;;;15.61;43.07;-18918.09;5031282;28;9924;-70
2022/04/19 08:11:18;;;;;;;;;20.00;17.00;;;;;15.55;43.05;-18916.41;5022956;28;10084;-70
2022/04/19 08:13:46;;;;;;;;;15.50;12.75;;;;;15.80;43.16;-18923.81;5023244;28;10051;-70
2022/04/19 08:16:13;;;;;;;;;17.00;16.75;;;;;15.76;42.24;-18922.44;5021528;28;9850;-70
2022/04/19 08:18:40;;;;;;;;;13.50;13.50;;;;;16.03;42.27;-18930.56;5018767;28;9930;-70
2022/04/19 08:21:07;;;;;;;;;17.75;15.00;;;;;15.84;42.35;-18925.00;5021302;28;9917;-70
2022/04/19 08:23:34;;;;;;;;;18.00;13.50;;;;;16.09;42.05;-18932.38;5020449;28;9970;-70
2022/04/19 08:26:05;;;;;;;;;12.50;11.75;;;;;16.17;41.82;-18934.78;5039065;28;9867;-70
2022/04/19 08:28:32;;;;;;;;;13.25;13.25;;;;;16.25;41.30;-18937.19;5019525;28;9770;-70
2022/04/19 08:30:59;;;;;;;;;20.25;15.75;;;;;16.71;41.00;-18950.56;5022222;28;10581;-70
2022/04/19 08:33:29;;;;;;;;;12.00;10.50;;;;;16.54;41.09;-18945.59;5027443;28;9842;-70
2022/04/19 08:35:57;;;;;;;;;12.00;11.00;;;;;16.94;40.61;-18957.34;5020222;28;9790;-70
2022/04/19 08:38:26;;;;;;;;;16.25;16.25;;;;;17.18;39.92;-18964.69;5023082;28;9687;-70
2022/04/19 08:40:53;;;;;;;;;8.25;8.25;;;;;17.34;39.11;-18969.34;5037623;28;9690;-70
2022/04/19 08:43:21;;;;;;;;;13.50;11.00;;;;;16.99;39.41;-18959.00;5036193;28;9520;-70
2022/04/19 08:45:48;;;;;;;;;12.25;9.00;;;;;17.35;38.99;-18969.50;5027592;28;9601;-70
2022/04/19 08:48:15;;;;;;;;;15.25;15.25;;;;;17.29;38.75;-18967.72;5023176;28;9541;-70
2022/04/19 08:50:46;;;;;;;;;14.33;13.67;;;;;17.41;38.56;-18971.47;5022945;28;9621;-70
2022/04/19 08:58:43;;;;;;;;;11.00;8.50;;;;;18.37;37.43;-18999.88;5040042;28;9535;-70
2022/04/19 09:01:09;;;;;;;;;13.33;7.33;;;;;18.59;35.95;-19006.16;5029971;28;10491;-70
2022/04/19 09:03:38;;;;;;;;;11.33;10.00;;;;;18.65;37.12;-19008.13;5027381;28;9419;-70
2022/04/19 09:06:04;;;;;;;;;11.33;11.33;;;;;18.86;36.68;-19014.28;5023700;28;9345;-70
2022/04/19 09:08:31;;;;;;;;;10.00;8.00;;;;;19.08;35.71;-19020.72;5021594;28;9422;-70
2022/04/19 09:11:11;;;;;;;;;11.67;10.00;;;;;18.87;34.10;-19014.44;5037127;28;9324;-69
2022/04/19 09:13:37;;;;;;;;;7.00;5.67;;;;;18.98;34.99;-19017.72;5022158;28;9321;-69
2022/04/19 09:16:05;;;;;;;;;7.00;7.00;;;;;19.09;34.62;-19020.88;5024065;28;9159;-69
2022/04/19 09:18:36;;;;;;;;;11.67;11.67;;;;;19.02;35.70;-19019.09;5023715;28;9263;-70
2022/04/19 09:21:05;;;;;;;;;12.33;10.67;;;;;19.08;35.72;-19020.59;5023513;28;9216;-69
2022/04/19 09:23:34;;;;;;;;;15.00;12.67;;;;;18.91;36.31;-19015.78;5021511;28;9235;-69
2022/04/19 09:26:05;;;;;;;;;13.33;9.33;;;;;19.31;35.90;-19027.63;5022884;28;9251;-69
2022/04/19 09:28:34;;;;;;;;;12.00;12.00;;;;;19.41;36.05;-19030.34;5021407;28;9262;-70
2022/04/19 09:31:07;;;;;;;;;14.00;14.00;;;;;19.34;35.70;-19028.53;5022579;28;9001;-70
2022/04/19 09:33:34;;;;;;;;;13.33;10.67;;;;;19.33;36.66;-19028.09;5022294;28;9148;-70
2022/04/19 09:36:03;;;;;;;;;16.00;11.00;;;;;19.18;34.30;-19023.72;5028413;28;9009;-70
2022/04/19 09:38:41;;;;;;;;;13.67;9.67;;;;;19.54;35.15;-19034.41;5016532;28;9078;-70
2022/04/19 09:41:14;;;;;;;;;18.67;14.33;;;;;19.77;35.17;-19041.00;5017301;28;9048;-70
2022/04/19 09:44:16;;;;;;;;;16.33;14.67;;;;;19.33;35.80;-19028.25;5025366;28;9238;-70
2022/04/19 09:47:05;;;;;;;;;12.00;10.33;;;;;19.49;35.80;-19032.75;5022359;28;9157;-69
2022/04/19 09:49:44;;;;;;;;;20.67;13.67;;;;;19.30;35.34;-19027.19;5021584;28;9861;-69
2022/04/19 09:52:34;;;;;;;;;10.00;10.00;;;;;19.55;34.84;-19034.69;5021915;28;9081;-70
2022/04/19 09:55:05;;;;;;;;;12.33;12.33;;;;;18.94;35.50;-19016.69;5021780;28;8991;-70
2022/04/19 09:57:39;;;;;;;;;13.33;12.00;;;;;18.88;36.83;-19014.72;5026102;28;9048;-69
2022/04/19 10:00:12;;;;;;;;;11.33;11.33;;;;;19.74;36.45;-19040.25;5020448;28;9183;-69
2022/04/19 10:08:19;;;;;;;;;8.25;8.25;;;;;19.90;35.19;-19045.06;5022808;28;8898;-70
2022/04/19 10:10:48;;;;;;;;;12.33;9.33;;;;;20.02;35.47;-19048.50;5027406;28;9563;-70
2022/04/19 10:13:17;;;;;;;;;14.00;14.00;;;;;19.77;36.01;-19041.00;5028067;28;8997;-71
2022/04/19 10:15:44;;;;;;;;;15.00;15.00;;;;;19.29;36.60;-19027.03;5035606;28;9084;-70
2022/04/19 10:18:10;;;;;;;;;8.33;7.00;;;;;19.19;36.81;-19023.88;5019338;28;8980;-71
2022/04/19 10:20:56;;;;;;;;;14.33;11.33;;;;;18.83;36.48;-19013.38;5023036;28;9084;-70
2022/04/19 10:23:33;;;;;;;;;16.67;14.33;;;;;18.84;36.70;-19013.53;5027025;28;9055;-70
2022/04/19 10:26:22;;;;;;;;;14.00;14.00;;;;;18.98;36.30;-19017.88;5024609;28;9007;-70
2022/04/19 10:28:51;;;;;;;;;14.67;13.67;;;;;19.37;36.24;-19029.28;5019339;28;9098;-70
2022/04/19 10:31:30;;;;;;;;;13.00;9.67;;;;;19.63;35.12;-19037.09;5021320;28;9154;-70
2022/04/19 10:34:05;;;;;;;;;12.33;11.67;;;;;19.48;36.83;-19032.59;5019622;28;9082;-70
2022/04/19 10:36:39;;;;;;;;;15.00;15.00;;;;;18.77;36.92;-19011.56;5023209;28;9138;-70
2022/04/19 10:39:12;;;;;;;;;14.67;14.00;;;;;18.60;36.99;-19006.63;5021200;28;10035;-70
2022/04/19 10:41:57;;;;;;;;;17.00;14.00;;;;;18.77;37.26;-19011.56;5039289;28;9225;-70
2022/04/19 10:44:31;;;;;;;;;17.67;14.33;;;;;18.50;36.31;-19003.47;5023898;28;9064;-71
2022/04/19 10:47:19;;;;;;;;;24.00;19.67;;;;;18.23;37.24;-18995.50;5025530;28;9234;-70
2022/04/19 10:50:00;;;;;;;;;21.67;19.00;;;;;18.15;37.39;-18993.25;5027060;28;9526;-70
2022/04/19 10:52:35;;;;;;;;;16.67;16.67;;;;;18.14;38.52;-18992.94;5024571;28;9301;-70
2022/04/19 10:55:08;;;;;;;;;14.67;13.00;;;;;18.90;36.80;-19015.34;5022711;28;9286;-70
2022/04/19 11:00:42;;;;;;;;;24.00;21.50;;;;;18.34;36.99;-18998.81;5028076;28;9470;-70
2022/04/19 11:03:29;;;;;;;;;19.00;16.75;;;;;18.55;37.30;-19005.13;5037390;28;9622;-70
2022/04/19 11:05:57;;;;;;;;;15.00;15.00;;;;;19.17;37.13;-19023.44;5025684;28;9474;-70
2022/04/19 11:08:26;;;;;;;;;17.00;16.33;;;;;19.55;36.35;-19034.53;5025168;28;9312;-70
2022/04/19 11:10:54;;;;;;;;;16.67;16.00;;;;;19.71;36.42;-19039.19;5025234;28;10112;-70
2022/04/19 11:13:22;;;;;;;;;21.67;20.33;;;;;19.87;35.88;-19044.16;5025196;28;10186;-70
2022/04/19 11:16:08;;;;;;;;;17.50;16.75;;;;;19.71;35.08;-19039.19;5023232;28;9495;-70
2022/04/19 11:18:56;;;;;;;;;19.67;15.33;;;;;19.47;34.92;-19032.28;5022745;28;9348;-70
2022/04/19 11:21:50;;;;;;;;;16.00;16.00;;;;;19.35;35.02;-19028.84;5027442;28;9255;-71
2022/04/19 11:24:54;;;;;;;;;14.33;13.67;;;;;19.18;34.06;-19023.59;5022559;28;9324;-71
2022/04/19 11:27:21;;;;;;;;;16.00;16.00;;;;;19.32;33.87;-19027.94;5024227;28;9360;-71
2022/04/19 11:29:49;;;;;;;;;17.67;12.33;;;;;19.39;35.15;-19029.75;5022614;28;10080;-71
2022/04/19 11:32:25;;;;;;;;;13.00;11.33;;;;;19.40;34.11;-19030.19;5022468;28;9274;-71
2022/04/19 11:34:59;;;;;;;;;14.00;13.00;;;;;19.37;34.19;-19029.28;5027044;28;9154;-71
2022/04/19 11:37:26;;;;;;;;;19.00;15.33;;;;;19.34;34.06;-19028.38;5028034;28;9239;-71
2022/04/19 11:48:30;;;;;;;;;21.00;17.00;;;;;18.27;37.20;-18996.69;5013750;28;9229;-71
2022/04/19 11:51:11;;;;;;;;;18.00;16.33;;;;;18.63;37.38;-19007.53;5022524;28;9339;-70
2022/04/19 11:53:37;;;;;;;;;18.00;17.00;;;;;19.09;36.32;-19020.88;5024587;28;9243;-70
2022/04/19 11:56:06;;;;;;;;;13.67;13.33;;;;;18.98;36.92;-19017.88;5032523;28;9313;-70
2022/04/19 11:58:33;;;;;;;;;14.00;11.67;;;;;19.40;36.04;-19030.03;5023661;28;9241;-71
2022/04/19 12:01:05;;;;;;;;;15.00;13.67;;;;;19.20;36.26;-19024.19;5034734;28;9314;-71
2022/04/19 12:03:36;;;;;;;;;17.00;14.67;;;;;19.02;35.97;-19018.94;5023375;28;9321;-71
2022/04/19 12:06:14;;;;;;;;;18.00;15.33;;;;;19.41;35.85;-19030.34;5028747;28;9378;-71
2022/04/19 12:08:44;;;;;;;;;15.00;13.33;;;;;19.27;36.39;-19026.44;5031400;28;9452;-71